createdAt,value
2018-02-05T00:00:35.976Z,99.99
2018-02-05T00:01:35.890Z,99.99
2018-02-05T00:02:35.806Z,99.99
2018-02-05T00:03:35.720Z,99.99
2018-02-05T00:04:35.635Z,99.99
2018-02-05T00:05:35.550Z,99.99
2018-02-05T00:06:35.465Z,99.99
2018-02-05T00:07:35.379Z,99.99
2018-02-05T00:08:35.292Z,99.99
2018-02-05T00:09:35.209Z,99.99
2018-02-05T00:10:35.124Z,99.99
2018-02-05T00:11:35.038Z,99.99
2018-02-05T00:12:34.957Z,99.99
2018-02-05T00:13:34.867Z,99.99
2018-02-05T00:14:34.783Z,99.99
2018-02-05T00:15:34.698Z,99.99
2018-02-05T00:16:34.612Z,99.99
2018-02-05T00:17:34.527Z,99.99
2018-02-05T00:18:34.445Z,99.99
2018-02-05T00:19:34.357Z,99.99
2018-02-05T00:20:34.270Z,99.99
2018-02-05T00:21:34.188Z,99.99
2018-02-05T00:22:34.100Z,99.99
2018-02-05T00:23:34.016Z,99.99
2018-02-05T00:24:33.929Z,99.99
2018-02-05T00:25:33.844Z,99.99
2018-02-05T00:26:33.759Z,99.99
2018-02-05T00:27:33.674Z,99.99
2018-02-05T00:28:33.588Z,99.99
2018-02-05T00:29:33.502Z,99.99
2018-02-05T00:30:33.418Z,99.99
2018-02-05T00:31:33.333Z,99.99
2018-02-05T00:32:33.246Z,99.99
2018-02-05T00:33:33.161Z,99.99
2018-02-05T00:34:33.077Z,99.99
2018-02-05T00:35:32.992Z,99.99
2018-02-05T00:36:32.907Z,99.99
2018-02-05T00:37:32.819Z,99.99
2018-02-05T00:38:32.736Z,99.99
2018-02-05T00:39:32.650Z,99.99
2018-02-05T00:40:32.564Z,99.99
2018-02-05T00:41:32.478Z,99.99
2018-02-05T00:42:32.397Z,99.99
2018-02-05T00:43:32.308Z,99.99
2018-02-05T00:44:32.222Z,99.99
2018-02-05T00:45:32.138Z,99.99
2018-02-05T00:46:32.052Z,99.99
2018-02-05T00:47:31.966Z,99.99
2018-02-05T00:48:31.881Z,99.99
2018-02-05T00:49:31.796Z,99.99
2018-02-05T00:50:31.711Z,99.99
2018-02-05T00:51:31.626Z,99.99
2018-02-05T00:52:31.539Z,99.99
2018-02-05T00:53:31.454Z,99.99
2018-02-05T00:54:31.370Z,99.99
2018-02-05T00:55:31.283Z,99.99
2018-02-05T00:56:31.198Z,99.99
2018-02-05T00:57:31.112Z,99.99
2018-02-05T00:58:31.027Z,99.99
2018-02-05T00:59:30.942Z,99.99
2018-02-05T01:00:30.857Z,99.99
2018-02-05T01:01:30.771Z,99.99
2018-02-05T01:02:30.686Z,99.99
2018-02-05T01:03:30.601Z,99.99
2018-02-05T01:04:30.515Z,99.99
2018-02-05T01:05:30.430Z,99.99
2018-02-05T01:06:30.343Z,99.99
2018-02-05T01:07:30.259Z,99.99
2018-02-05T01:08:30.172Z,99.99
2018-02-05T01:09:30.087Z,99.99
2018-02-05T01:10:30.001Z,99.99
2018-02-05T01:11:29.917Z,99.99
2018-02-05T01:12:29.833Z,99.99
2018-02-05T01:13:29.745Z,99.99
2018-02-05T01:14:29.660Z,99.99
2018-02-05T01:15:29.573Z,99.99
2018-02-05T01:16:29.488Z,99.99
2018-02-05T01:17:29.402Z,99.99
2018-02-05T01:18:29.318Z,99.99
2018-02-05T01:19:29.232Z,99.99
2018-02-05T01:20:29.146Z,99.99
2018-02-05T01:21:29.059Z,99.99
2018-02-05T01:22:28.979Z,99.99
2018-02-05T01:23:28.889Z,99.99
2018-02-05T01:24:28.802Z,99.99
2018-02-05T01:25:28.717Z,99.99
2018-02-05T01:26:28.632Z,99.99
2018-02-05T01:27:28.546Z,99.99
2018-02-05T01:28:28.459Z,99.99
2018-02-05T01:29:28.374Z,99.99
2018-02-05T01:30:28.289Z,99.99
2018-02-05T01:31:28.204Z,99.99
2018-02-05T01:32:28.118Z,99.99
2018-02-05T01:33:28.033Z,99.99
2018-02-05T01:34:27.947Z,99.99
2018-02-05T01:35:27.862Z,99.99
2018-02-05T01:36:27.776Z,99.99
2018-02-05T01:37:27.690Z,99.99
2018-02-05T01:38:27.605Z,99.99
2018-02-05T01:39:27.520Z,99.99
2018-02-05T01:40:27.434Z,99.99
2018-02-05T01:41:27.348Z,99.99
2018-02-05T01:42:27.264Z,99.99
2018-02-05T01:43:27.178Z,99.99
2018-02-05T01:44:27.092Z,99.99
2018-02-05T01:45:27.006Z,99.99
2018-02-05T01:46:26.922Z,99.99
2018-02-05T01:47:26.836Z,99.99
2018-02-05T01:48:26.749Z,99.99
2018-02-05T01:49:26.664Z,99.99
2018-02-05T01:50:26.579Z,99.99
2018-02-05T01:51:26.495Z,99.99
2018-02-05T01:52:26.408Z,99.99
2018-02-05T01:53:26.324Z,99.99
2018-02-05T01:54:26.239Z,99.99
2018-02-05T01:55:26.153Z,99.99
2018-02-05T01:56:26.066Z,99.99
2018-02-05T01:57:25.981Z,99.99
2018-02-05T01:58:25.896Z,99.99
2018-02-05T01:59:25.812Z,99.99
2018-02-05T02:00:25.726Z,99.99
2018-02-05T02:01:25.940Z,99.99
2018-02-05T02:02:25.555Z,99.99
2018-02-05T02:03:25.475Z,99.99
2018-02-05T02:04:25.384Z,99.99
2018-02-05T02:05:25.298Z,99.99
2018-02-05T02:06:25.213Z,99.99
2018-02-05T02:07:25.128Z,99.99
2018-02-05T02:08:25.042Z,99.99
2018-02-05T02:09:24.957Z,99.99
2018-02-05T02:10:24.872Z,99.99
2018-02-05T02:11:24.786Z,99.99
2018-02-05T02:12:24.701Z,99.99
2018-02-05T02:13:24.615Z,99.99
2018-02-05T02:14:24.534Z,99.99
2018-02-05T02:15:24.446Z,99.99
2018-02-05T02:16:24.360Z,99.99
2018-02-05T02:17:24.273Z,99.99
2018-02-05T02:18:24.188Z,99.99
2018-02-05T02:19:24.115Z,99.99
2018-02-05T02:20:24.017Z,99.99
2018-02-05T02:21:23.933Z,99.99
2018-02-05T02:22:23.848Z,99.99
2018-02-05T02:23:23.762Z,99.99
2018-02-05T02:24:23.678Z,99.99
2018-02-05T02:25:23.591Z,99.99
2018-02-05T02:26:23.509Z,99.99
2018-02-05T02:27:23.421Z,99.99
2018-02-05T02:28:23.334Z,99.99
2018-02-05T02:29:23.250Z,99.99
2018-02-05T02:30:23.166Z,99.99
2018-02-05T02:31:23.083Z,99.99
2018-02-05T02:32:22.992Z,99.99
2018-02-05T02:33:22.910Z,99.99
2018-02-05T02:34:22.823Z,99.99
2018-02-05T02:35:22.738Z,99.99
2018-02-05T02:36:22.658Z,99.99
2018-02-05T02:37:22.569Z,99.99
2018-02-05T02:38:22.486Z,99.99
2018-02-05T02:39:22.396Z,99.99
2018-02-05T02:40:22.311Z,99.99
2018-02-05T02:41:22.226Z,99.99
2018-02-05T02:42:22.139Z,99.99
2018-02-05T02:43:22.055Z,99.99
2018-02-05T02:44:21.969Z,99.99
2018-02-05T02:45:21.885Z,99.99
2018-02-05T02:46:21.798Z,99.99
2018-02-05T02:47:21.712Z,99.99
2018-02-05T02:48:21.627Z,99.99
2018-02-05T02:49:21.541Z,99.99
2018-02-05T02:50:21.456Z,99.99
2018-02-05T02:51:21.371Z,99.99
2018-02-05T02:52:21.286Z,99.99
2018-02-05T02:53:21.200Z,99.99
2018-02-05T02:54:21.114Z,99.99
2018-02-05T02:55:21.029Z,99.99
2018-02-05T02:56:20.943Z,99.99
2018-02-05T02:57:20.859Z,99.99
2018-02-05T02:58:20.776Z,99.99
2018-02-05T02:59:20.690Z,99.99
2018-02-05T03:00:20.601Z,99.99
2018-02-05T03:01:20.516Z,99.99
2018-02-05T03:02:20.430Z,99.99
2018-02-05T03:03:20.347Z,99.99
2018-02-05T03:04:20.259Z,99.99
2018-02-05T03:05:20.177Z,99.99
2018-02-05T03:06:20.089Z,99.99
2018-02-05T03:07:20.005Z,99.99
2018-02-05T03:08:19.918Z,99.99
2018-02-05T03:09:19.832Z,99.99
2018-02-05T03:10:19.747Z,99.99
2018-02-05T03:11:19.661Z,99.99
2018-02-05T03:12:19.576Z,99.99
2018-02-05T03:13:19.491Z,99.99
2018-02-05T03:14:19.404Z,99.99
2018-02-05T03:15:19.319Z,99.99
2018-02-05T03:16:19.234Z,99.99
2018-02-05T03:17:19.148Z,99.99
2018-02-05T03:18:19.062Z,99.99
2018-02-05T03:19:18.978Z,99.99
2018-02-05T03:20:18.891Z,99.99
2018-02-05T03:21:18.805Z,99.99
2018-02-05T03:22:18.720Z,99.99
2018-02-05T03:23:18.635Z,99.99
2018-02-05T03:24:18.547Z,99.99
2018-02-05T03:25:18.462Z,99.99
2018-02-05T03:26:18.377Z,99.99
2018-02-05T03:27:18.293Z,99.99
2018-02-05T03:28:18.211Z,99.99
2018-02-05T03:29:18.119Z,99.99
2018-02-05T03:30:18.036Z,99.99
2018-02-05T03:31:17.950Z,99.99
2018-02-05T03:32:17.863Z,99.99
2018-02-05T03:33:17.775Z,99.99
2018-02-05T03:34:17.691Z,99.99
2018-02-05T03:35:17.605Z,99.99
2018-02-05T03:36:17.519Z,99.99
2018-02-05T03:37:17.431Z,99.99
2018-02-05T03:38:17.345Z,99.99
2018-02-05T03:39:17.261Z,99.99
2018-02-05T03:40:17.173Z,99.99
2018-02-05T03:41:17.089Z,99.99
2018-02-05T03:42:17.002Z,99.99
2018-02-05T03:43:16.915Z,99.99
2018-02-05T03:44:16.829Z,99.99
2018-02-05T03:45:16.742Z,99.99
2018-02-05T03:46:16.657Z,99.99
2018-02-05T03:47:16.570Z,99.99
2018-02-05T03:48:16.484Z,99.99
2018-02-05T03:49:16.396Z,99.99
2018-02-05T03:50:16.312Z,99.99
2018-02-05T03:51:16.224Z,99.99
2018-02-05T03:52:16.138Z,99.99
2018-02-05T03:53:16.052Z,99.99
2018-02-05T03:54:15.968Z,99.99
2018-02-05T03:55:15.881Z,99.99
2018-02-05T03:56:15.794Z,99.99
2018-02-05T03:57:15.714Z,99.99
2018-02-05T03:58:15.620Z,99.99
2018-02-05T03:59:15.536Z,99.99
2018-02-05T04:00:15.447Z,99.99
2018-02-05T04:01:15.362Z,99.99
2018-02-05T04:02:15.276Z,99.99
2018-02-05T04:03:15.190Z,99.99
2018-02-05T04:04:15.103Z,99.99
2018-02-05T04:05:15.016Z,99.99
2018-02-05T04:06:14.932Z,99.99
2018-02-05T04:07:14.845Z,99.99
2018-02-05T04:08:14.757Z,99.99
2018-02-05T04:09:14.671Z,99.99
2018-02-05T04:10:14.585Z,99.99
2018-02-05T04:11:14.499Z,99.99
2018-02-05T04:12:14.411Z,99.99
2018-02-05T04:13:14.325Z,99.99
2018-02-05T04:14:14.239Z,99.99
2018-02-05T04:15:14.155Z,99.99
2018-02-05T04:16:14.066Z,99.99
2018-02-05T04:17:13.978Z,99.99
2018-02-05T04:18:13.894Z,99.99
2018-02-05T04:19:13.808Z,99.99
2018-02-05T04:20:13.721Z,99.99
2018-02-05T04:21:13.637Z,99.99
2018-02-05T04:22:13.547Z,99.99
2018-02-05T04:23:13.461Z,99.99
2018-02-05T04:24:13.374Z,99.99
2018-02-05T04:25:13.287Z,99.99
2018-02-05T04:26:13.206Z,99.99
2018-02-05T04:27:13.115Z,99.99
2018-02-05T04:28:13.028Z,99.99
2018-02-05T04:29:12.940Z,99.99
2018-02-05T04:30:12.855Z,99.99
2018-02-05T04:31:12.767Z,99.99
2018-02-05T04:32:12.681Z,99.99
2018-02-05T04:33:12.595Z,99.99
2018-02-05T04:34:12.508Z,99.99
2018-02-05T04:35:12.422Z,99.99
2018-02-05T04:36:12.333Z,99.99
2018-02-05T04:37:12.248Z,99.99
2018-02-05T04:38:12.160Z,99.99
2018-02-05T04:39:12.078Z,99.99
2018-02-05T04:40:11.987Z,99.99
2018-02-05T04:41:11.899Z,99.99
2018-02-05T04:42:11.815Z,99.99
2018-02-05T04:43:11.728Z,99.99
2018-02-05T04:44:11.641Z,99.99
2018-02-05T04:45:11.559Z,99.99
2018-02-05T04:46:11.468Z,99.99
2018-02-05T04:47:11.381Z,99.99
2018-02-05T04:48:11.292Z,99.99
2018-02-05T04:49:11.206Z,99.99
2018-02-05T04:50:11.120Z,99.99
2018-02-05T04:51:11.033Z,99.99
2018-02-05T04:52:10.947Z,99.99
2018-02-05T04:53:10.859Z,99.99
2018-02-05T04:54:10.774Z,99.99
2018-02-05T04:55:10.685Z,99.99
2018-02-05T04:56:10.599Z,99.99
2018-02-05T04:57:10.512Z,99.99
2018-02-05T04:58:10.424Z,99.99
2018-02-05T04:59:10.338Z,99.99
2018-02-05T05:00:10.252Z,99.99
2018-02-05T05:01:10.163Z,99.99
2018-02-05T05:02:10.078Z,99.99
2018-02-05T05:03:09.991Z,99.99
2018-02-05T05:04:09.902Z,99.99
2018-02-05T05:05:09.817Z,99.99
2018-02-05T05:06:09.730Z,99.99
2018-02-05T05:07:09.645Z,99.99
2018-02-05T05:08:09.556Z,99.99
2018-02-05T05:09:09.469Z,99.99
2018-02-05T05:10:09.382Z,99.99
2018-02-05T05:11:09.296Z,99.99
2018-02-05T05:12:09.208Z,99.99
2018-02-05T05:13:09.122Z,99.99
2018-02-05T05:14:09.035Z,99.99
2018-02-05T05:15:08.947Z,99.99
2018-02-05T05:16:08.860Z,99.99
2018-02-05T05:17:08.773Z,99.99
2018-02-05T05:18:08.687Z,99.99
2018-02-05T05:19:08.601Z,99.99
2018-02-05T05:20:08.513Z,99.99
2018-02-05T05:21:08.425Z,99.99
2018-02-05T05:22:08.340Z,99.99
2018-02-05T05:23:08.252Z,99.99
2018-02-05T05:24:08.165Z,99.99
2018-02-05T05:25:08.078Z,99.99
2018-02-05T05:26:07.992Z,99.99
2018-02-05T05:27:07.906Z,99.99
2018-02-05T05:28:07.817Z,99.99
2018-02-05T05:29:07.731Z,99.99
2018-02-05T05:30:07.644Z,99.99
2018-02-05T05:31:07.557Z,99.99
2018-02-05T05:32:07.469Z,99.99
2018-02-05T05:33:07.383Z,99.99
2018-02-05T05:34:07.301Z,99.99
2018-02-05T05:35:07.208Z,99.99
2018-02-05T05:36:07.121Z,99.99
2018-02-05T05:37:07.033Z,99.99
2018-02-05T05:38:06.948Z,99.99
2018-02-05T05:39:06.864Z,99.99
2018-02-05T05:40:06.771Z,99.99
2018-02-05T05:41:06.685Z,99.99
2018-02-05T05:42:06.598Z,99.99
2018-02-05T05:43:06.510Z,99.99
2018-02-05T05:44:06.421Z,99.99
2018-02-05T05:45:06.335Z,99.99
2018-02-05T05:46:06.247Z,99.99
2018-02-05T05:47:06.159Z,99.99
2018-02-05T05:48:06.072Z,99.99
2018-02-05T05:49:05.984Z,99.99
2018-02-05T05:50:05.898Z,99.99
2018-02-05T05:51:05.811Z,99.99
2018-02-05T05:52:05.722Z,99.99
2018-02-05T05:53:05.635Z,99.99
2018-02-05T05:54:05.547Z,99.99
2018-02-05T05:55:05.476Z,99.99
2018-02-05T05:56:05.373Z,99.99
2018-02-05T05:57:05.285Z,99.99
2018-02-05T05:58:05.196Z,99.99
2018-02-05T05:59:05.109Z,99.99
2018-02-05T06:00:05.021Z,99.99
2018-02-05T06:01:04.934Z,99.99
2018-02-05T06:02:04.846Z,99.99
2018-02-05T06:03:04.759Z,99.99
2018-02-05T06:04:04.671Z,99.99
2018-02-05T06:05:04.584Z,99.99
2018-02-05T06:06:04.497Z,99.99
2018-02-05T06:07:04.409Z,99.99
2018-02-05T06:08:04.320Z,99.99
2018-02-05T06:09:04.233Z,99.99
2018-02-05T06:10:04.146Z,99.99
2018-02-05T06:11:04.058Z,99.99
2018-02-05T06:12:03.970Z,99.99
2018-02-05T06:13:03.885Z,99.99
2018-02-05T06:14:03.794Z,99.99
2018-02-05T06:15:03.708Z,99.99
2018-02-05T06:16:03.619Z,99.99
2018-02-05T06:17:03.533Z,99.99
2018-02-05T06:18:03.445Z,99.99
2018-02-05T06:19:03.358Z,99.99
2018-02-05T06:20:03.270Z,99.99
2018-02-05T06:21:03.181Z,99.99
2018-02-05T06:22:03.095Z,99.99
2018-02-05T06:23:03.007Z,99.99
2018-02-05T06:24:02.918Z,99.99
2018-02-05T06:25:02.831Z,99.99
2018-02-05T06:26:02.744Z,99.99
2018-02-05T06:27:02.756Z,99.99
2018-02-05T06:28:02.569Z,99.99
2018-02-05T06:29:02.482Z,99.99
2018-02-05T06:30:02.395Z,99.99
2018-02-05T06:31:02.307Z,99.99
2018-02-05T06:32:02.217Z,99.99
2018-02-05T06:33:02.131Z,99.99
2018-02-05T06:34:02.044Z,99.99
2018-02-05T06:35:01.956Z,99.99
2018-02-05T06:36:01.869Z,99.99
2018-02-05T06:37:01.781Z,99.99
2018-02-05T06:38:01.693Z,99.99
2018-02-05T06:39:01.620Z,99.99
2018-02-05T06:40:01.518Z,99.99
2018-02-05T06:41:01.431Z,99.99
2018-02-05T06:42:01.342Z,99.99
2018-02-05T06:43:01.256Z,99.99
2018-02-05T06:44:01.169Z,99.99
2018-02-05T06:45:01.082Z,99.99
2018-02-05T06:46:00.993Z,99.99
2018-02-05T06:47:00.904Z,99.99
2018-02-05T06:48:00.816Z,99.99
2018-02-05T06:49:00.731Z,99.99
2018-02-05T06:50:00.642Z,99.99
2018-02-05T06:51:00.555Z,99.99
2018-02-05T06:52:00.466Z,99.99
2018-02-05T06:53:00.378Z,99.99
2018-02-05T06:54:00.290Z,99.99
2018-02-05T06:55:00.203Z,99.99
2018-02-05T06:56:00.115Z,99.99
2018-02-05T06:57:00.032Z,99.99
2018-02-05T06:57:59.939Z,99.99
2018-02-05T06:58:59.850Z,99.99
2018-02-05T06:59:59.763Z,99.99
2018-02-05T07:00:59.675Z,99.99
2018-02-05T07:01:59.596Z,99.99
2018-02-05T07:02:59.500Z,99.99
2018-02-05T07:03:59.411Z,99.99
2018-02-05T07:04:59.323Z,99.99
2018-02-05T07:05:59.237Z,99.99
2018-02-05T07:06:59.149Z,99.99
2018-02-05T07:07:59.061Z,99.99
2018-02-05T07:08:58.973Z,99.99
2018-02-05T07:09:58.886Z,99.99
2018-02-05T07:10:58.797Z,99.99
2018-02-05T07:11:58.709Z,99.99
2018-02-05T07:12:58.622Z,99.99
2018-02-05T07:13:58.534Z,99.99
2018-02-05T07:14:58.446Z,99.99
2018-02-05T07:15:58.360Z,99.99
2018-02-05T07:16:58.271Z,99.99
2018-02-05T07:17:58.183Z,99.99
2018-02-05T07:18:58.096Z,99.99
2018-02-05T07:19:58.008Z,99.99
2018-02-05T07:20:57.941Z,99.99
2018-02-05T07:21:57.833Z,99.99
2018-02-05T07:22:57.746Z,99.99
2018-02-05T07:23:57.655Z,99.99
2018-02-05T07:24:57.573Z,99.99
2018-02-05T07:25:57.480Z,99.99
2018-02-05T07:26:57.395Z,99.99
2018-02-05T07:27:57.305Z,99.99
2018-02-05T07:28:57.219Z,99.99
2018-02-05T07:29:57.132Z,99.99
2018-02-05T07:30:57.044Z,99.99
2018-02-05T07:31:56.955Z,99.99
2018-02-05T07:32:56.869Z,99.99
2018-02-05T07:33:56.783Z,99.99
2018-02-05T07:34:56.694Z,99.99
2018-02-05T07:35:56.606Z,99.99
2018-02-05T07:36:56.518Z,99.99
2018-02-05T07:37:56.432Z,99.99
2018-02-05T07:38:56.345Z,99.99
2018-02-05T07:39:56.258Z,99.99
2018-02-05T07:40:56.169Z,99.99
2018-02-05T07:41:56.082Z,99.99
2018-02-05T07:42:55.995Z,99.99
2018-02-05T07:43:55.907Z,99.99
2018-02-05T07:44:55.819Z,99.99
2018-02-05T07:45:55.731Z,99.99
2018-02-05T07:46:55.645Z,99.99
2018-02-05T07:47:55.557Z,99.99
2018-02-05T07:48:55.470Z,99.99
2018-02-05T07:49:55.382Z,99.99
2018-02-05T07:50:55.295Z,99.99
2018-02-05T07:51:55.207Z,99.99
2018-02-05T07:52:55.120Z,99.99
2018-02-05T07:53:55.033Z,99.99
2018-02-05T07:54:54.946Z,99.99
2018-02-05T07:55:54.861Z,99.99
2018-02-05T07:56:54.817Z,99.99
2018-02-05T07:57:54.684Z,99.99
2018-02-05T07:58:54.596Z,99.99
2018-02-05T07:59:54.509Z,99.99
2018-02-05T08:00:54.421Z,99.99
2018-02-05T08:01:54.335Z,99.99
2018-02-05T08:02:54.247Z,99.99
2018-02-05T08:03:54.159Z,99.99
2018-02-05T08:04:54.072Z,99.99
2018-02-05T08:05:53.986Z,99.99
2018-02-05T08:06:53.897Z,99.99
2018-02-05T08:07:53.815Z,99.99
2018-02-05T08:08:53.725Z,99.99
2018-02-05T08:09:53.786Z,99.99
2018-02-05T08:10:53.549Z,99.99
2018-02-05T08:11:53.460Z,99.99
2018-02-05T08:12:53.374Z,99.99
2018-02-05T08:13:53.287Z,99.99
2018-02-05T08:14:53.201Z,99.99
2018-02-05T08:15:53.112Z,99.99
2018-02-05T08:16:53.026Z,99.99
2018-02-05T08:17:52.938Z,99.99
2018-02-05T08:18:52.852Z,99.99
2018-02-05T08:19:52.764Z,99.99
2018-02-05T08:20:52.677Z,99.99
2018-02-05T08:21:52.592Z,99.99
2018-02-05T08:22:52.504Z,99.99
2018-02-05T08:23:52.416Z,99.99
2018-02-05T08:24:52.328Z,99.99
2018-02-05T08:25:52.242Z,99.99
2018-02-05T08:26:52.156Z,99.99
2018-02-05T08:27:52.070Z,99.99
2018-02-05T08:28:51.980Z,99.99
2018-02-05T08:29:51.894Z,99.99
2018-02-05T08:30:51.807Z,99.99
2018-02-05T08:31:51.720Z,99.99
2018-02-05T08:32:51.635Z,99.99
2018-02-05T08:33:51.547Z,99.99
2018-02-05T08:34:51.460Z,99.99
2018-02-05T08:35:51.371Z,99.99
2018-02-05T08:36:51.286Z,99.99
2018-02-05T08:37:51.199Z,99.99
2018-02-05T08:38:51.117Z,99.99
2018-02-05T08:39:51.026Z,99.99
2018-02-05T08:40:50.940Z,99.99
2018-02-05T08:41:50.857Z,99.99
2018-02-05T08:42:50.766Z,99.94
2018-02-05T08:43:50.679Z,99.37
2018-02-05T08:44:50.592Z,99.27
2018-02-05T08:45:50.508Z,98.90
2018-02-05T08:46:50.419Z,98.43
2018-02-05T08:47:50.386Z,98.38
2018-02-05T08:48:50.246Z,98.38
2018-02-05T08:49:50.161Z,98.38
2018-02-05T08:50:50.074Z,98.28
2018-02-05T08:51:49.989Z,98.38
2018-02-05T08:52:49.902Z,97.72
2018-02-05T08:53:49.817Z,97.72
2018-02-05T08:54:49.730Z,97.63
2018-02-05T08:55:49.646Z,97.25
2018-02-05T08:56:49.564Z,97.91
2018-02-05T08:57:49.473Z,97.63
2018-02-05T08:58:49.386Z,97.34
2018-02-05T08:59:49.301Z,97.06
2018-02-05T09:00:49.220Z,96.40
2018-02-05T09:01:49.130Z,97.15
2018-02-05T09:02:49.043Z,96.59
2018-02-05T09:03:48.957Z,96.59
2018-02-05T09:04:48.872Z,95.92
2018-02-05T09:05:48.787Z,95.73
2018-02-05T09:06:48.702Z,96.30
2018-02-05T09:07:48.620Z,96.30
2018-02-05T09:08:48.531Z,95.83
2018-02-05T09:09:48.444Z,96.11
2018-02-05T09:10:48.360Z,95.07
2018-02-05T09:11:48.274Z,95.26
2018-02-05T09:12:48.189Z,94.51
2018-02-05T09:13:48.104Z,94.89
2018-02-05T09:14:48.021Z,96.02
2018-02-05T09:15:47.934Z,95.50
2018-02-05T09:16:47.847Z,95.12
2018-02-05T09:17:47.763Z,94.27
2018-02-05T09:18:47.678Z,94.41
2018-02-05T09:19:47.591Z,94.79
2018-02-05T09:20:47.508Z,94.89
2018-02-05T09:21:47.423Z,94.65
2018-02-05T09:22:47.338Z,94.84
2018-02-05T09:23:47.251Z,94.18
2018-02-05T09:24:47.167Z,93.70
2018-02-05T09:25:47.083Z,93.42
2018-02-05T09:26:46.998Z,94.08
2018-02-05T09:27:46.912Z,92.66
2018-02-05T09:28:46.827Z,91.81
2018-02-05T09:29:46.743Z,92.14
2018-02-05T09:30:46.657Z,92.05
2018-02-05T09:31:46.573Z,91.67
2018-02-05T09:32:46.488Z,90.53
2018-02-05T09:33:46.403Z,90.63
2018-02-05T09:34:46.319Z,91.20
2018-02-05T09:35:46.232Z,92.38
2018-02-05T09:36:46.150Z,92.00
2018-02-05T09:37:46.065Z,93.32
2018-02-05T09:38:45.980Z,92.85
2018-02-05T09:39:45.896Z,92.85
2018-02-05T09:40:45.814Z,93.32
2018-02-05T09:41:45.732Z,93.70
2018-02-05T09:42:45.642Z,93.51
2018-02-05T09:43:45.558Z,93.23
2018-02-05T09:44:45.472Z,92.66
2018-02-05T09:45:45.390Z,92.10
2018-02-05T09:46:45.305Z,93.23
2018-02-05T09:47:45.219Z,93.61
2018-02-05T09:48:45.136Z,92.38
2018-02-05T09:49:45.051Z,92.85
2018-02-05T09:50:44.968Z,93.61
2018-02-05T09:51:44.882Z,92.38
2018-02-05T09:52:44.799Z,92.24
2018-02-05T09:53:44.715Z,91.10
2018-02-05T09:54:44.630Z,90.91
2018-02-05T09:55:44.547Z,91.20
2018-02-05T09:56:44.462Z,90.25
2018-02-05T09:57:44.379Z,90.72
2018-02-05T09:58:44.300Z,90.82
2018-02-05T09:59:44.209Z,90.53
2018-02-05T10:00:44.126Z,91.10
2018-02-05T10:01:44.041Z,90.34
2018-02-05T10:02:43.959Z,90.34
2018-02-05T10:03:43.876Z,91.20
2018-02-05T10:04:43.790Z,91.48
2018-02-05T10:05:43.707Z,92.14
2018-02-05T10:06:43.626Z,91.29
2018-02-05T10:07:43.539Z,91.10
2018-02-05T10:08:43.456Z,90.44
2018-02-05T10:09:43.372Z,90.91
2018-02-05T10:10:43.288Z,90.25
2018-02-05T10:11:43.204Z,88.93
2018-02-05T10:12:43.121Z,88.93
2018-02-05T10:13:43.037Z,89.02
2018-02-05T10:14:42.953Z,88.93
2018-02-05T10:15:42.870Z,88.83
2018-02-05T10:16:42.786Z,89.16
2018-02-05T10:17:42.702Z,88.36
2018-02-05T10:18:42.619Z,88.93
2018-02-05T10:19:42.535Z,89.12
2018-02-05T10:20:42.452Z,88.49
2018-02-05T10:21:42.369Z,87.98
2018-02-05T10:22:42.284Z,88.07
2018-02-05T10:23:42.201Z,88.97
2018-02-05T10:24:42.118Z,88.17
2018-02-05T10:25:42.036Z,88.64
2018-02-05T10:26:41.952Z,88.36
2018-02-05T10:27:41.867Z,89.12
2018-02-05T10:28:41.785Z,88.49
2018-02-05T10:29:41.701Z,87.65
2018-02-05T10:30:41.619Z,88.36
2018-02-05T10:31:41.536Z,88.26
2018-02-05T10:32:41.452Z,89.78
2018-02-05T10:33:41.370Z,89.50
2018-02-05T10:34:41.287Z,88.83
2018-02-05T10:35:41.202Z,88.93
2018-02-05T10:36:41.120Z,88.36
2018-02-05T10:37:41.036Z,87.88
2018-02-05T10:38:40.953Z,88.36
2018-02-05T10:39:40.870Z,88.68
2018-02-05T10:40:40.788Z,87.74
2018-02-05T10:41:40.703Z,85.38
2018-02-05T10:42:40.770Z,84.56
2018-02-05T10:43:40.537Z,83.14
2018-02-05T10:44:40.454Z,82.90
2018-02-05T10:45:40.372Z,81.99
2018-02-05T10:46:40.290Z,79.02
2018-02-05T10:47:40.206Z,79.68
2018-02-05T10:48:40.126Z,79.39
2018-02-05T10:49:40.044Z,79.49
2018-02-05T10:50:40.020Z,79.44
2018-02-05T10:51:39.881Z,79.21
2018-02-05T10:52:39.801Z,78.64
2018-02-05T10:53:39.722Z,79.02
2018-02-05T10:54:39.639Z,79.68
2018-02-05T10:55:39.558Z,80.29
2018-02-05T10:56:39.479Z,78.02
2018-02-05T10:57:39.398Z,76.82
2018-02-05T10:58:39.317Z,76.15
2018-02-05T10:59:39.238Z,77.11
2018-02-05T11:00:39.160Z,76.78
2018-02-05T11:01:39.079Z,78.87
2018-02-05T11:02:39.000Z,79.30
2018-02-05T11:03:38.921Z,80.91
2018-02-05T11:04:38.842Z,81.20
2018-02-05T11:05:38.762Z,79.96
2018-02-05T11:06:38.684Z,81.20
2018-02-05T11:07:38.603Z,80.44
2018-02-05T11:08:38.526Z,80.15
2018-02-05T11:09:38.447Z,79.77
2018-02-05T11:10:38.368Z,79.15
2018-02-05T11:11:38.287Z,78.77
2018-02-05T11:12:38.210Z,76.97
2018-02-05T11:13:38.131Z,77.25
2018-02-05T11:14:38.052Z,76.97
2018-02-05T11:15:37.972Z,77.16
2018-02-05T11:16:37.894Z,76.78
2018-02-05T11:17:37.814Z,75.93
2018-02-05T11:18:37.737Z,74.83
2018-02-05T11:19:37.660Z,74.60
2018-02-05T11:20:37.582Z,74.45
2018-02-05T11:21:37.500Z,75.07
2018-02-05T11:22:37.422Z,76.03
2018-02-05T11:23:37.342Z,75.60
2018-02-05T11:24:37.263Z,78.26
2018-02-05T11:25:37.185Z,78.92
2018-02-05T11:26:37.107Z,78.54
2018-02-05T11:27:37.026Z,77.88
2018-02-05T11:28:36.948Z,76.84
2018-02-05T11:29:36.868Z,77.59
2018-02-05T11:30:36.789Z,77.78
2018-02-05T11:31:36.711Z,79.49
2018-02-05T11:32:36.632Z,77.73
2018-02-05T11:33:36.552Z,75.78
2018-02-05T11:34:36.475Z,74.30
2018-02-05T11:35:36.395Z,71.41
2018-02-05T11:36:36.318Z,71.51
2018-02-05T11:37:36.240Z,71.36
2018-02-05T11:38:36.162Z,70.03
2018-02-05T11:39:36.085Z,68.60
2018-02-05T11:40:36.007Z,68.98
2018-02-05T11:41:35.930Z,68.70
2018-02-05T11:42:35.853Z,69.80
2018-02-05T11:43:35.775Z,71.70
2018-02-05T11:44:35.703Z,71.98
2018-02-05T11:45:35.620Z,71.92
2018-02-05T11:46:35.545Z,71.55
2018-02-05T11:47:35.467Z,71.17
2018-02-05T11:48:35.390Z,70.92
2018-02-05T11:49:35.314Z,69.21
2018-02-05T11:50:35.237Z,68.41
2018-02-05T11:51:35.187Z,68.26
2018-02-05T11:52:35.085Z,67.82
2018-02-05T11:53:35.009Z,66.33
2018-02-05T11:54:34.934Z,64.81
2018-02-05T11:55:34.862Z,65.09
2018-02-05T11:56:34.783Z,63.79
2018-02-05T11:57:34.709Z,62.18
2018-02-05T11:58:34.635Z,61.80
2018-02-05T11:59:34.560Z,61.16
2018-02-05T12:00:34.485Z,60.47
2018-02-05T12:01:34.412Z,61.55
2018-02-05T12:02:34.340Z,61.29
2018-02-05T12:03:34.266Z,60.27
2018-02-05T12:04:34.194Z,58.53
2018-02-05T12:05:34.121Z,58.44
2018-02-05T12:06:34.049Z,58.37
2018-02-05T12:07:33.976Z,58.30
2018-02-05T12:08:33.906Z,57.01
2018-02-05T12:09:33.839Z,58.53
2018-02-05T12:10:33.763Z,59.29
2018-02-05T12:11:33.690Z,58.98
2018-02-05T12:12:33.620Z,59.36
2018-02-05T12:13:33.548Z,58.85
2018-02-05T12:14:33.477Z,60.18
2018-02-05T12:15:33.407Z,61.58
2018-02-05T12:16:33.337Z,61.90
2018-02-05T12:17:33.267Z,61.71
2018-02-05T12:18:33.195Z,60.75
2018-02-05T12:19:33.124Z,60.91
2018-02-05T12:20:33.053Z,61.80
2018-02-05T12:21:32.982Z,62.81
2018-02-05T12:22:32.912Z,62.43
2018-02-05T12:23:32.844Z,62.18
2018-02-05T12:24:32.768Z,62.53
2018-02-05T12:25:32.697Z,62.78
2018-02-05T12:26:32.628Z,63.45
2018-02-05T12:27:32.554Z,65.41
2018-02-05T12:28:32.483Z,67.75
2018-02-05T12:29:32.413Z,68.38
2018-02-05T12:30:32.342Z,69.80
2018-02-05T12:31:32.267Z,68.98
2018-02-05T12:32:32.195Z,68.04
2018-02-05T12:33:32.123Z,67.37
2018-02-05T12:34:32.051Z,68.41
2018-02-05T12:35:31.977Z,69.23
2018-02-05T12:36:31.904Z,69.52
2018-02-05T12:37:31.830Z,70.75
2018-02-05T12:38:31.757Z,72.33
2018-02-05T12:39:31.682Z,73.24
2018-02-05T12:40:31.615Z,74.09
2018-02-05T12:41:31.534Z,75.13
2018-02-05T12:42:31.458Z,75.64
2018-02-05T12:43:31.384Z,76.12
2018-02-05T12:44:31.308Z,75.07
2018-02-05T12:45:31.240Z,74.56
2018-02-05T12:46:31.157Z,74.47
2018-02-05T12:47:31.085Z,74.95
2018-02-05T12:48:31.006Z,75.98
2018-02-05T12:49:30.927Z,74.88
2018-02-05T12:50:30.852Z,75.07
2018-02-05T12:51:30.774Z,73.31